createdAt,value
2022-09-02T00:02:26.289Z,4.38
2022-09-02T00:04:53.964Z,4.47
2022-09-02T00:07:21.629Z,4.75
2022-09-02T00:09:49.276Z,4.40
2022-09-02T00:12:16.951Z,4.30
2022-09-02T00:14:44.589Z,4.38
2022-09-02T00:17:13.689Z,4.57
2022-09-02T00:19:41.499Z,4.40
2022-09-02T00:22:09.403Z,4.63
2022-09-02T00:24:37.258Z,5.05
2022-09-02T00:27:05.317Z,4.30
2022-09-02T00:29:33.016Z,4.50
2022-09-02T00:32:00.958Z,4.13
2022-09-02T00:34:30.106Z,4.35
2022-09-02T00:36:57.817Z,4.50
2022-09-02T00:39:26.103Z,4.38
2022-09-02T00:41:54.090Z,4.70
2022-09-02T00:44:22.472Z,4.50
2022-09-02T00:46:50.110Z,4.57
2022-09-02T00:49:24.223Z,4.75
2022-09-02T00:51:57.691Z,4.45
2022-09-02T00:54:29.073Z,4.57
2022-09-02T00:56:57.333Z,4.72
2022-09-02T00:59:31.362Z,4.78
2022-09-02T01:01:59.118Z,4.35
2022-09-02T01:04:27.533Z,4.50
2022-09-02T01:06:56.858Z,4.40
2022-09-02T01:09:24.517Z,5.20
2022-09-02T01:11:53.504Z,5.03
2022-09-02T01:14:21.223Z,4.85
2022-09-02T01:16:52.490Z,4.77
2022-09-02T01:19:24.969Z,4.60
2022-09-02T01:21:55.169Z,4.90
2022-09-02T01:24:26.549Z,5.07
2022-09-02T01:26:56.576Z,4.93
2022-09-02T01:29:25.452Z,5.38
2022-09-02T01:31:53.661Z,5.20
2022-09-02T01:34:22.806Z,5.40
2022-09-02T01:36:50.460Z,5.18
2022-09-02T01:39:19.473Z,5.27
2022-09-02T01:41:47.306Z,5.10
2022-09-02T01:44:16.098Z,5.28
2022-09-02T01:46:43.808Z,5.32
2022-09-02T01:49:11.510Z,5.50
2022-09-02T01:51:39.139Z,5.25
2022-09-02T01:54:07.295Z,5.68
2022-09-02T01:56:36.327Z,5.60
2022-09-02T01:59:04.586Z,5.50
2022-09-02T02:01:32.397Z,5.28
2022-09-02T02:04:01.018Z,5.40
2022-09-02T02:06:29.052Z,5.47
2022-09-02T02:08:56.700Z,5.43
2022-09-02T02:11:26.239Z,5.05
2022-09-02T02:13:55.279Z,5.50
2022-09-02T02:16:23.061Z,5.13
2022-09-02T02:18:50.775Z,5.50
2022-09-02T02:21:18.456Z,5.22
2022-09-02T02:23:48.539Z,5.50
2022-09-02T02:26:16.446Z,5.35
2022-09-02T02:28:44.480Z,5.30
2022-09-02T02:31:13.846Z,5.70
2022-09-02T02:33:41.702Z,5.50
2022-09-02T02:36:10.210Z,5.60
2022-09-02T02:38:40.000Z,5.57
2022-09-02T02:41:08.370Z,5.83
2022-09-02T02:43:36.992Z,5.60
2022-09-02T02:46:05.494Z,5.55
2022-09-02T02:48:35.462Z,5.88
2022-09-02T02:51:03.793Z,5.90
2022-09-02T02:53:32.200Z,5.75
2022-09-02T02:56:00.481Z,5.70
2022-09-02T02:58:28.227Z,5.55
2022-09-02T03:00:56.356Z,5.63
2022-09-02T03:03:24.354Z,5.40
2022-09-02T03:05:53.793Z,5.47
2022-09-02T03:08:22.319Z,6.10
2022-09-02T03:10:54.296Z,5.55
2022-09-02T03:13:22.945Z,5.43
2022-09-02T03:15:51.639Z,5.60
2022-09-02T03:18:20.146Z,5.60
2022-09-02T03:20:47.859Z,5.30
2022-09-02T03:23:17.928Z,5.50
2022-09-02T03:25:46.654Z,5.40
2022-09-02T03:28:15.362Z,5.65
2022-09-02T03:30:43.622Z,5.22
2022-09-02T03:33:11.294Z,6.07
2022-09-02T03:35:41.014Z,6.47
2022-09-02T03:38:09.762Z,6.60
2022-09-02T03:40:40.127Z,6.80
2022-09-02T03:43:07.893Z,6.30
2022-09-02T03:45:35.973Z,6.18
2022-09-02T03:48:04.495Z,6.40
2022-09-02T03:50:34.166Z,6.32
2022-09-02T03:53:02.175Z,6.50
2022-09-02T03:55:30.647Z,6.00
2022-09-02T03:58:00.310Z,6.43
2022-09-02T04:00:30.409Z,5.70
2022-09-02T04:02:58.324Z,5.75
2022-09-02T04:05:26.350Z,5.80
2022-09-02T04:10:22.118Z,5.55
2022-09-02T04:12:50.636Z,6.10
2022-09-02T04:15:21.434Z,6.95
2022-09-02T04:17:49.266Z,7.50
2022-09-02T04:20:17.985Z,6.72
2022-09-02T04:22:45.713Z,7.13
2022-09-02T04:25:13.725Z,6.50
2022-09-02T04:27:41.644Z,6.80
2022-09-02T04:30:10.822Z,6.47
2022-09-02T04:32:40.903Z,6.20
2022-09-02T04:35:09.577Z,5.40
2022-09-02T04:37:37.349Z,5.47
2022-09-02T04:40:05.850Z,4.90
2022-09-02T04:42:34.281Z,5.65
2022-09-02T04:45:02.001Z,6.00
2022-09-02T04:47:29.597Z,5.75
2022-09-02T04:49:58.692Z,6.05
2022-09-02T04:52:27.059Z,6.28
2022-09-02T04:54:54.736Z,6.40
2022-09-02T04:57:22.577Z,6.05
2022-09-02T04:59:50.218Z,5.47
2022-09-02T05:02:20.265Z,5.90
2022-09-02T05:04:48.057Z,5.82
2022-09-02T05:07:17.124Z,5.43
2022-09-02T05:09:45.027Z,5.47
2022-09-02T05:12:13.198Z,5.65
2022-09-02T05:14:40.983Z,6.13
2022-09-02T05:17:08.674Z,5.70
2022-09-02T05:19:36.354Z,6.03
2022-09-02T05:22:04.552Z,5.18
2022-09-02T05:24:33.632Z,5.57
2022-09-02T05:27:01.302Z,5.00
2022-09-02T05:29:29.058Z,5.00
2022-09-02T05:31:56.661Z,4.82
2022-09-02T05:34:24.814Z,5.20
2022-09-02T05:36:52.600Z,4.70
2022-09-02T05:39:20.370Z,4.47
2022-09-02T05:41:49.465Z,4.35
2022-09-02T05:44:17.104Z,4.00
2022-09-02T05:46:48.696Z,4.47
2022-09-02T05:49:18.246Z,4.00
2022-09-02T05:51:48.802Z,3.47
2022-09-02T05:54:19.157Z,4.05
2022-09-02T05:56:53.706Z,3.70
2022-09-02T05:59:21.978Z,3.78
2022-09-02T06:01:50.078Z,3.60
2022-09-02T06:04:18.201Z,3.40
2022-09-02T06:06:45.878Z,3.78
2022-09-02T06:09:16.685Z,3.83
2022-09-02T06:11:49.215Z,3.60
2022-09-02T06:14:20.721Z,3.50
2022-09-02T06:16:50.347Z,3.60
2022-09-02T06:19:20.405Z,3.35
2022-09-02T06:21:48.971Z,3.00
2022-09-02T06:24:16.794Z,3.50
2022-09-02T06:26:45.433Z,3.00
2022-09-02T06:29:13.679Z,3.17
2022-09-02T06:31:44.319Z,2.80
2022-09-02T06:34:14.651Z,2.97
2022-09-02T06:36:43.270Z,2.65
2022-09-02T06:39:13.359Z,2.80
2022-09-02T06:41:42.577Z,2.80
2022-09-02T06:44:12.318Z,3.00
2022-09-02T06:46:47.307Z,3.17
2022-09-02T06:49:16.238Z,3.25
2022-09-02T06:51:45.514Z,2.80
2022-09-02T06:54:16.374Z,3.10
2022-09-02T06:56:48.731Z,2.90
2022-09-02T06:59:17.184Z,2.90
2022-09-02T07:01:47.363Z,3.08
2022-09-02T07:04:33.331Z,3.05
2022-09-02T07:07:01.092Z,2.97
2022-09-02T07:09:31.138Z,3.10
2022-09-02T07:12:04.276Z,2.92
2022-09-02T07:14:36.915Z,2.80
2022-09-02T07:17:06.875Z,2.90
2022-09-02T07:19:34.823Z,1.95
2022-09-02T07:22:04.002Z,2.60
2022-09-02T07:24:31.718Z,2.30
2022-09-02T07:26:59.434Z,2.40
2022-09-02T07:29:27.457Z,2.07
2022-09-02T07:31:55.166Z,2.00
2022-09-02T07:34:24.275Z,1.90
2022-09-02T07:36:52.561Z,2.00
2022-09-02T07:39:20.590Z,2.17
2022-09-02T07:41:50.271Z,1.90
2022-09-02T07:44:18.947Z,2.00
2022-09-02T07:46:46.939Z,1.80
2022-09-02T07:49:15.767Z,1.95
2022-09-02T07:51:49.440Z,2.00
2022-09-02T07:54:18.809Z,1.85
2022-09-02T07:56:46.604Z,2.00
2022-09-02T07:59:14.247Z,1.77
2022-09-02T08:04:18.643Z,2.00
2022-09-02T08:06:47.914Z,1.80
2022-09-02T08:09:15.701Z,1.80
2022-09-02T08:11:46.458Z,2.13
2022-09-02T08:14:18.047Z,2.20
2022-09-02T08:16:47.072Z,1.80
2022-09-02T08:19:15.719Z,2.10
2022-09-02T08:21:43.384Z,2.05
2022-09-02T08:24:12.505Z,1.88
2022-09-02T08:26:40.174Z,2.00
2022-09-02T08:29:09.603Z,1.90
2022-09-02T08:31:38.907Z,1.90
2022-09-02T08:34:07.029Z,1.80
2022-09-02T08:36:34.946Z,1.80
2022-09-02T08:39:04.601Z,2.10
2022-09-02T08:41:41.249Z,1.90
2022-09-02T08:44:11.537Z,2.08
2022-09-02T08:46:39.499Z,1.80
2022-09-02T08:49:11.781Z,2.00
2022-09-02T08:51:51.024Z,2.00
2022-09-02T08:54:27.293Z,2.00
2022-09-02T08:56:58.926Z,2.00
2022-09-02T08:59:29.331Z,2.30
2022-09-02T09:02:13.600Z,2.10
2022-09-02T09:05:12.860Z,2.03
2022-09-02T09:07:54.607Z,2.00
2022-09-02T09:10:29.729Z,1.77
2022-09-02T09:13:20.987Z,1.90
2022-09-02T09:15:55.229Z,1.70
2022-09-02T09:18:32.167Z,1.65
2022-09-02T09:20:59.932Z,1.60
2022-09-02T09:23:34.233Z,1.88
2022-09-02T09:26:08.429Z,1.65
2022-09-02T09:28:43.514Z,1.52
2022-09-02T09:31:15.062Z,1.13
2022-09-02T09:33:56.471Z,1.40
2022-09-02T09:36:45.026Z,1.40
2022-09-02T09:39:20.067Z,1.40
2022-09-02T09:41:49.611Z,1.30
2022-09-02T09:44:43.229Z,1.40
2022-09-02T09:47:17.932Z,1.10
2022-09-02T09:49:46.983Z,1.45
2022-09-02T09:52:24.497Z,1.23
2022-09-02T09:55:12.357Z,1.20
2022-09-02T09:57:44.682Z,1.50
2022-09-02T10:00:26.732Z,1.52
2022-09-02T10:02:57.881Z,1.40
2022-09-02T10:05:33.050Z,1.25
2022-09-02T10:08:03.259Z,1.20
2022-09-02T10:10:33.430Z,1.20
2022-09-02T10:16:12.207Z,1.20
2022-09-02T10:18:44.849Z,1.00
2022-09-02T10:21:27.965Z,1.15
2022-09-02T10:24:05.700Z,1.10
2022-09-02T10:27:23.754Z,1.20
2022-09-02T10:29:58.940Z,1.00
2022-09-02T10:32:43.236Z,1.10
2022-09-02T10:35:19.486Z,1.20
2022-09-02T10:38:01.846Z,1.10
2022-09-02T10:40:37.464Z,0.90
2022-09-02T10:43:07.570Z,1.10
2022-09-02T10:46:01.257Z,1.15
2022-09-02T10:48:40.775Z,0.80
2022-09-02T10:51:17.486Z,1.10
2022-09-02T10:54:17.642Z,1.00
2022-09-02T10:56:50.868Z,1.20
2022-09-02T10:59:23.001Z,0.90
2022-09-02T11:01:57.101Z,1.00
2022-09-02T11:04:38.877Z,0.80
2022-09-02T11:07:10.768Z,0.80
2022-09-02T11:09:42.411Z,1.00
2022-09-02T11:12:16.708Z,1.00
2022-09-02T11:14:56.253Z,0.80
2022-09-02T11:17:30.788Z,1.00
2022-09-02T11:20:09.488Z,1.00
2022-09-02T11:22:46.065Z,0.80
2022-09-02T11:25:18.675Z,0.80
2022-09-02T11:27:50.348Z,0.70
2022-09-02T11:30:21.509Z,0.95
2022-09-02T11:32:56.566Z,1.00
2022-09-02T11:35:27.942Z,0.90
2022-09-02T11:38:02.261Z,1.00
2022-09-02T11:40:39.096Z,1.10
2022-09-02T11:43:28.983Z,0.82
2022-09-02T11:46:28.319Z,0.77
2022-09-02T11:49:11.419Z,1.08
2022-09-02T11:52:04.389Z,0.90
2022-09-02T11:54:37.258Z,1.02
2022-09-02T11:57:07.298Z,0.80
2022-09-02T12:00:10.703Z,1.00
2022-09-02T12:02:46.134Z,0.70
2022-09-02T12:06:06.097Z,0.85
2022-09-02T12:09:09.413Z,0.82
2022-09-02T12:11:50.815Z,0.90
2022-09-02T12:15:07.448Z,0.90
2022-09-02T12:17:40.725Z,0.77
2022-09-02T12:20:11.148Z,0.80
2022-09-02T19:55:58.920Z,1.47
2022-09-02T19:58:27.690Z,1.13
2022-09-02T20:00:56.980Z,1.58
2022-09-02T20:03:24.791Z,1.98
2022-09-02T20:05:53.526Z,1.20
2022-09-02T20:08:31.146Z,1.20
2022-09-02T20:11:01.295Z,1.00
2022-09-02T20:13:30.841Z,1.20
2022-09-02T20:15:58.619Z,1.00
2022-09-02T20:18:29.539Z,1.05
2022-09-02T20:20:59.913Z,1.13
2022-09-02T20:23:33.315Z,1.30
2022-09-02T20:26:12.252Z,1.38
2022-09-02T20:28:59.343Z,1.20
2022-09-02T20:31:42.360Z,1.40
2022-09-02T20:34:28.096Z,1.17
2022-09-02T20:37:05.711Z,1.30
2022-09-02T20:39:54.247Z,1.10
2022-09-02T20:42:48.639Z,1.23
2022-09-02T20:45:25.121Z,1.10
2022-09-02T20:48:02.144Z,1.20
